createdAt,value
2023-04-10T00:00:38.751Z,23.40
2023-04-10T00:05:42.493Z,12.30
2023-04-10T00:10:46.214Z,11.40
2023-04-10T00:15:50.299Z,11.50
2023-04-10T00:20:54.074Z,12.50
2023-04-10T00:25:58.025Z,11.40
2023-04-10T00:31:01.639Z,12.60
2023-04-10T00:36:06.207Z,15.00
2023-04-10T00:41:10.321Z,12.50
2023-04-10T00:46:15.392Z,16.20
2023-04-10T00:51:20.242Z,14.20
2023-04-10T00:56:24.952Z,15.40
2023-04-10T01:01:28.745Z,16.80
2023-04-10T01:06:50.575Z,13.90
2023-04-10T01:11:58.942Z,9.10
2023-04-10T01:17:07.913Z,10.00
2023-04-10T01:22:16.164Z,10.30
2023-04-10T01:27:44.684Z,11.90
2023-04-10T01:32:54.010Z,16.50
2023-04-10T01:38:00.789Z,13.70
2023-04-10T01:43:09.449Z,16.20
2023-04-10T01:48:21.146Z,14.00
2023-04-10T01:53:25.443Z,13.10
2023-04-10T01:58:30.038Z,14.40
2023-04-10T02:03:34.978Z,10.30
2023-04-10T02:08:43.368Z,14.90
2023-04-10T02:13:49.226Z,13.20
2023-04-10T02:18:54.434Z,12.80
2023-04-10T02:23:59.372Z,9.80
2023-04-10T02:29:02.878Z,13.00
2023-04-10T02:34:06.667Z,11.50
2023-04-10T02:39:10.556Z,11.50
2023-04-10T02:44:22.344Z,13.80
2023-04-10T02:49:26.019Z,11.60
2023-04-10T02:54:29.864Z,16.10
2023-04-10T02:59:33.826Z,16.90
2023-04-10T03:04:37.993Z,11.00
2023-04-10T03:09:42.700Z,12.90
2023-04-10T03:14:46.430Z,11.30
2023-04-10T03:19:50.047Z,14.00
2023-04-10T03:24:53.805Z,14.70
2023-04-10T03:29:57.699Z,12.30
2023-04-10T03:35:01.411Z,18.30
2023-04-10T03:40:08.150Z,13.10
2023-04-10T03:45:14.025Z,14.00
2023-04-10T03:50:17.757Z,14.60
2023-04-10T03:55:30.374Z,19.60
2023-04-10T04:00:34.720Z,15.10
2023-04-10T04:05:45.774Z,18.20
2023-04-10T04:11:08.535Z,16.10
2023-04-10T04:16:36.048Z,17.10
2023-04-10T04:22:01.676Z,15.10
2023-04-10T04:27:24.143Z,14.40
2023-04-10T04:32:39.744Z,22.40
2023-04-10T04:38:19.584Z,21.00
2023-04-10T04:43:46.931Z,26.30
2023-04-10T04:54:45.058Z,26.00
2023-04-10T05:00:10.942Z,24.90
2023-04-10T05:05:40.417Z,28.70
2023-04-10T05:10:49.811Z,30.10
2023-04-10T05:16:26.833Z,27.20
2023-04-10T05:21:55.856Z,26.00
2023-04-10T05:27:23.115Z,23.00
2023-04-10T05:38:19.082Z,30.30
2023-04-10T05:43:52.174Z,26.10
2023-04-10T05:49:10.153Z,23.90
2023-04-10T05:54:43.173Z,21.30
2023-04-10T06:00:12.146Z,22.20
2023-04-10T06:05:29.916Z,27.60
2023-04-10T06:10:37.201Z,22.20
2023-04-10T06:15:40.881Z,22.10
2023-04-10T06:20:44.853Z,19.00
2023-04-10T06:25:49.205Z,16.10
2023-04-10T06:30:54.383Z,19.60
2023-04-10T06:36:02.050Z,25.50
2023-04-10T06:41:07.718Z,20.10
2023-04-10T06:46:11.555Z,21.80
2023-04-10T06:51:15.404Z,28.10
2023-04-10T06:56:19.025Z,24.10
2023-04-10T07:01:22.673Z,33.00
2023-04-10T07:06:26.958Z,23.20
2023-04-10T07:11:30.667Z,21.20
2023-04-10T07:16:34.405Z,21.10
2023-04-10T07:21:38.332Z,23.20
2023-04-10T07:26:41.925Z,15.80
2023-04-10T07:31:45.901Z,17.50
2023-04-10T07:36:49.604Z,17.20
2023-04-10T07:41:54.669Z,27.60
2023-04-10T07:46:58.803Z,17.40
2023-04-10T07:52:02.400Z,18.70
2023-04-10T07:57:06.070Z,15.00
2023-04-10T08:02:09.929Z,18.30
2023-04-10T08:07:13.694Z,18.80
2023-04-10T08:12:17.282Z,16.70
2023-04-10T08:17:20.908Z,16.30
2023-04-10T08:22:24.742Z,11.80
2023-04-10T08:27:29.948Z,12.70
2023-04-10T08:32:33.749Z,12.50
2023-04-10T08:37:37.617Z,17.70
2023-04-10T08:42:41.287Z,12.50
2023-04-10T08:47:48.083Z,12.50
2023-04-10T08:52:55.223Z,11.70
2023-04-10T08:58:01.619Z,6.40
2023-04-10T09:03:08.316Z,13.20
2023-04-10T09:08:14.796Z,12.30
2023-04-10T09:13:36.882Z,8.50
2023-04-10T09:18:48.285Z,16.50
2023-04-10T09:24:00.899Z,12.60
2023-04-10T09:29:06.199Z,11.00
2023-04-10T09:34:13.463Z,10.00
2023-04-10T09:39:19.170Z,10.80
2023-04-10T09:44:31.085Z,15.50
2023-04-10T09:49:46.669Z,18.40
2023-04-10T09:54:50.975Z,17.90
2023-04-10T09:59:56.266Z,10.90
2023-04-10T10:05:00.633Z,10.60
2023-04-10T10:10:06.246Z,15.80
2023-04-10T10:15:16.630Z,14.70
2023-04-10T10:20:24.963Z,14.20
2023-04-10T10:25:30.579Z,14.70
2023-04-10T10:30:35.108Z,16.90
2023-04-10T10:35:39.515Z,23.40
2023-04-10T10:40:54.756Z,17.80
2023-04-10T10:46:02.905Z,16.30
2023-04-10T10:51:07.547Z,17.30
2023-04-10T10:56:35.892Z,19.20
2023-04-10T11:07:02.266Z,19.10
2023-04-10T11:12:07.319Z,22.20
2023-04-10T11:17:11.702Z,25.90
2023-04-10T11:22:15.218Z,15.60
2023-04-10T11:27:39.744Z,12.30
2023-04-10T11:32:45.043Z,14.00
2023-04-10T11:37:48.852Z,13.80
2023-04-10T11:42:52.566Z,18.20
2023-04-10T11:47:56.329Z,16.00
2023-04-10T11:53:00.117Z,16.80
2023-04-10T11:58:03.824Z,17.50
2023-04-10T12:03:07.558Z,18.30
2023-04-10T12:08:11.227Z,16.30
2023-04-10T12:15:09.381Z,15.70
2023-04-10T12:19:37.814Z,12.00
2023-04-10T12:24:48.825Z,18.70
2023-04-10T12:29:53.517Z,16.00
2023-04-10T12:34:58.776Z,19.10
2023-04-10T12:40:10.818Z,19.20
2023-04-10T12:45:42.547Z,16.70
2023-04-10T12:50:50.617Z,25.30
2023-04-10T12:56:07.202Z,11.00
2023-04-10T13:01:13.562Z,9.90
2023-04-10T13:06:17.544Z,13.70
2023-04-10T13:11:22.514Z,14.80
2023-04-10T13:16:26.268Z,8.10
2023-04-10T13:21:30.139Z,16.40
2023-04-10T13:26:33.665Z,7.40
2023-04-10T13:31:37.574Z,13.40
2023-04-10T13:36:43.781Z,10.60
2023-04-10T13:41:47.497Z,15.50
2023-04-10T13:46:52.071Z,18.00
2023-04-10T13:51:56.008Z,9.00
2023-04-10T13:57:00.150Z,10.40
2023-04-10T14:02:03.794Z,9.20
2023-04-10T14:07:07.854Z,13.90
2023-04-10T14:12:12.023Z,23.10
2023-04-10T14:17:15.781Z,10.60
2023-04-10T14:22:19.885Z,9.90
2023-04-10T14:27:23.583Z,10.60
2023-04-10T14:32:27.375Z,11.50
2023-04-10T14:37:31.752Z,6.90
2023-04-10T14:42:35.505Z,9.10
2023-04-10T14:47:41.518Z,8.40
2023-04-10T14:52:45.688Z,8.60
2023-04-10T14:57:49.263Z,12.80
2023-04-10T15:02:53.025Z,11.20
2023-04-10T15:07:57.253Z,11.40
2023-04-10T15:13:00.861Z,7.30
2023-04-10T15:18:04.871Z,13.90
2023-04-10T15:23:08.812Z,11.60
2023-04-10T15:28:12.326Z,15.90
2023-04-10T15:33:16.157Z,13.90
2023-04-10T15:38:19.767Z,14.90
2023-04-10T15:43:23.310Z,18.50
2023-04-10T15:48:27.136Z,15.20
2023-04-10T15:53:31.166Z,14.80
2023-04-10T15:58:35.001Z,23.30
2023-04-10T16:03:38.719Z,16.00
2023-04-10T16:08:42.408Z,16.70
2023-04-10T16:13:45.905Z,15.50
2023-04-10T16:18:51.290Z,17.70
2023-04-10T16:23:55.257Z,16.20
2023-04-10T16:28:59.592Z,11.90
2023-04-10T16:34:03.204Z,16.60
2023-04-10T16:39:08.036Z,12.00
2023-04-10T16:44:11.819Z,10.50
2023-04-10T16:49:16.015Z,10.30
2023-04-10T16:54:19.672Z,20.50
2023-04-10T16:59:24.177Z,14.70
2023-04-10T17:04:28.413Z,15.40
2023-04-10T17:09:32.021Z,24.30
2023-04-10T17:14:35.560Z,16.70
2023-04-10T17:19:39.207Z,28.20
2023-04-10T17:24:43.651Z,14.50
2023-04-10T17:29:47.178Z,18.40
2023-04-10T17:34:50.734Z,11.30
2023-04-10T17:39:54.352Z,19.60
2023-04-10T17:44:58.025Z,22.10
2023-04-10T17:50:01.798Z,16.80
2023-04-10T17:55:07.458Z,14.00
2023-04-10T18:00:15.074Z,14.10
2023-04-10T18:05:18.642Z,18.50
2023-04-10T18:10:22.522Z,17.80
2023-04-10T18:15:26.308Z,32.90
2023-04-10T18:20:29.855Z,24.10
2023-04-10T18:25:33.568Z,15.70
2023-04-10T18:30:38.487Z,13.00
2023-04-10T18:35:42.304Z,10.50
2023-04-10T18:40:45.955Z,20.50
2023-04-10T18:45:49.639Z,30.80
2023-04-10T18:50:55.802Z,14.80
2023-04-10T18:55:59.354Z,15.80
2023-04-10T19:01:03.189Z,11.40
2023-04-10T19:06:09.097Z,25.10
2023-04-10T19:11:12.769Z,20.60
2023-04-10T19:16:18.804Z,27.50
2023-04-10T19:21:22.837Z,16.90
2023-04-10T19:26:26.608Z,14.80
2023-04-10T19:31:30.626Z,21.10
2023-04-10T19:36:38.395Z,37.10
2023-04-10T19:41:43.153Z,16.20
2023-04-10T19:46:48.688Z,15.60
2023-04-10T19:51:52.353Z,22.50
2023-04-10T19:56:56.841Z,27.10
2023-04-10T20:02:00.528Z,28.70
2023-04-10T20:07:04.327Z,21.60
2023-04-10T20:12:08.690Z,30.60
2023-04-10T20:17:12.363Z,23.20
2023-04-10T20:22:16.098Z,12.10
2023-04-10T20:27:19.776Z,39.60
2023-04-10T20:32:23.408Z,27.40
2023-04-10T20:37:27.207Z,24.30
2023-04-10T20:42:30.764Z,26.60
2023-04-10T20:47:34.429Z,26.70
2023-04-10T20:52:39.254Z,20.40
2023-04-10T20:57:42.821Z,33.20
2023-04-10T21:02:47.097Z,57.50
2023-04-10T21:07:50.806Z,32.00
2023-04-10T21:12:54.420Z,44.50
2023-04-10T21:17:58.123Z,40.20
2023-04-10T21:23:01.993Z,34.70
2023-04-10T21:28:05.553Z,34.40
2023-04-10T21:33:09.200Z,32.10
2023-04-10T21:38:13.661Z,30.30
2023-04-10T21:43:17.266Z,28.60
2023-04-10T21:48:20.923Z,31.40
2023-04-10T21:53:24.825Z,33.90
2023-04-10T21:58:28.365Z,24.40
2023-04-10T22:03:32.489Z,30.90
2023-04-10T22:08:37.610Z,28.20
2023-04-10T22:13:41.211Z,43.50
2023-04-10T22:18:44.710Z,27.20
2023-04-10T22:23:48.956Z,42.20
2023-04-10T22:28:53.698Z,37.60
2023-04-10T22:33:57.461Z,31.00
2023-04-10T22:39:01.347Z,30.50
2023-04-10T22:44:06.767Z,30.00
2023-04-10T22:49:10.350Z,34.70
2023-04-10T22:54:15.269Z,27.50
2023-04-10T22:59:18.842Z,24.90
2023-04-10T23:04:22.372Z,25.60
2023-04-10T23:09:26.176Z,24.20
2023-04-10T23:14:29.691Z,25.80
2023-04-10T23:19:33.262Z,22.90
2023-04-10T23:24:38.111Z,29.90
2023-04-10T23:29:41.617Z,28.50
2023-04-10T23:34:45.658Z,23.40
2023-04-10T23:39:49.343Z,26.30
2023-04-10T23:44:52.881Z,30.80
2023-04-10T23:49:56.455Z,33.40
2023-04-10T23:55:00.157Z,28.70
